createdAt,value
2022-12-25T00:01:55.210Z,98389.06
2022-12-25T00:04:23.247Z,98392.03
2022-12-25T00:06:51.378Z,98395.97
2022-12-25T00:09:20.783Z,98401.88
2022-12-25T00:11:48.963Z,98406.38
2022-12-25T00:14:16.985Z,98397.97
2022-12-25T00:16:46.144Z,98398.69
2022-12-25T00:19:14.252Z,98401.81
2022-12-25T00:21:42.325Z,98401.34
2022-12-25T00:24:10.817Z,98395.97
2022-12-25T00:26:40.405Z,98412.56
2022-12-25T00:29:08.520Z,98414.44
2022-12-25T00:31:36.717Z,98424.59
2022-12-25T00:34:04.888Z,98424.03
2022-12-25T00:36:39.496Z,98423.59
2022-12-25T00:39:09.700Z,98420.28
2022-12-25T00:41:55.181Z,98428.09
2022-12-25T00:44:24.662Z,98426.28
2022-12-25T00:46:52.811Z,98438.75
2022-12-25T00:49:22.811Z,98444.56
2022-12-25T00:51:50.913Z,98440.78
2022-12-25T00:54:19.376Z,98442.88
2022-12-25T00:56:48.096Z,98456.22
2022-12-25T00:59:16.293Z,98447.44
2022-12-25T01:01:45.893Z,98453.59
2022-12-25T01:04:14.694Z,98450.44
2022-12-25T01:06:42.820Z,98447.78
2022-12-25T01:09:28.336Z,98460.06
2022-12-25T01:11:56.489Z,98459.19
2022-12-25T01:14:24.533Z,98476.38
2022-12-25T01:16:54.071Z,98484.66
2022-12-25T01:19:22.307Z,98494.44
2022-12-25T01:21:50.332Z,98495.50
2022-12-25T01:24:18.509Z,98505.13
2022-12-25T01:26:46.633Z,98501.69
2022-12-25T01:29:14.700Z,98503.69
2022-12-25T01:31:42.831Z,98515.25
2022-12-25T01:34:12.314Z,98505.97
2022-12-25T01:36:40.387Z,98505.97
2022-12-25T01:39:08.445Z,98500.28
2022-12-25T01:41:36.585Z,98503.66
2022-12-25T01:44:07.744Z,98497.75
2022-12-25T01:46:36.871Z,98497.31
2022-12-25T01:49:09.674Z,98500.22
2022-12-25T01:51:43.875Z,98510.91
2022-12-25T01:54:17.226Z,98504.94
2022-12-25T01:56:49.235Z,98507.16
2022-12-25T01:59:20.710Z,98501.31
2022-12-25T02:01:49.751Z,98503.97
2022-12-25T02:04:23.439Z,98506.72
2022-12-25T02:06:53.097Z,98509.53
2022-12-25T02:09:21.163Z,98515.25
2022-12-25T02:11:57.974Z,98519.09
2022-12-25T02:14:26.770Z,98520.88
2022-12-25T02:17:02.109Z,98528.09
2022-12-25T02:19:50.259Z,98520.84
2022-12-25T02:22:31.351Z,98520.19
2022-12-25T02:25:13.855Z,98528.91
2022-12-25T02:28:11.375Z,98531.72
2022-12-25T02:30:43.990Z,98541.88
2022-12-25T02:33:34.485Z,98547.41
2022-12-25T02:36:08.630Z,98546.25
2022-12-25T02:38:59.994Z,98549.66
2022-12-25T02:41:30.218Z,98555.31
2022-12-25T02:44:20.245Z,98551.50
2022-12-25T02:47:06.565Z,98557.47
2022-12-25T02:49:53.935Z,98561.94
2022-12-25T02:52:41.737Z,98562.13
2022-12-25T02:55:31.488Z,98554.69
2022-12-25T02:58:26.698Z,98556.31
2022-12-25T03:01:19.547Z,98563.53
2022-12-25T03:04:08.958Z,98552.59
2022-12-25T03:06:44.759Z,98553.06
2022-12-25T03:09:36.217Z,98550.41
2022-12-25T03:12:14.578Z,98553.72
2022-12-25T03:15:00.404Z,98564.41
2022-12-25T03:17:31.580Z,98551.41
2022-12-25T03:20:17.114Z,98551.66
2022-12-25T03:23:04.994Z,98555.63
2022-12-25T03:25:51.409Z,98565.91
2022-12-25T03:28:19.607Z,98562.47
2022-12-25T03:31:14.185Z,98555.50
2022-12-25T03:34:17.527Z,98556.19
2022-12-25T03:36:59.147Z,98555.69
2022-12-25T03:39:53.465Z,98553.84
2022-12-25T03:42:38.907Z,98544.81
2022-12-25T03:45:31.823Z,98532.75
2022-12-25T03:48:23.241Z,98557.38
2022-12-25T03:51:15.466Z,98562.06
2022-12-25T03:54:05.486Z,98551.69
2022-12-25T03:56:52.518Z,98540.19
2022-12-25T03:59:39.226Z,98551.53
2022-12-25T04:02:25.287Z,98556.78
2022-12-25T04:05:10.999Z,98567.13
2022-12-25T04:07:57.832Z,98578.81
2022-12-25T04:10:43.568Z,98573.44
2022-12-25T04:13:28.927Z,98574.34
2022-12-25T04:16:14.564Z,98577.66
2022-12-25T04:18:59.961Z,98586.59
2022-12-25T04:21:46.077Z,98589.00
2022-12-25T04:24:33.075Z,98582.91
2022-12-25T04:27:18.441Z,98574.44
2022-12-25T04:30:03.791Z,98578.22
2022-12-25T04:32:49.149Z,98588.53
2022-12-25T04:35:35.046Z,98578.91
2022-12-25T04:38:03.446Z,98589.84
2022-12-25T04:40:32.877Z,98597.00
2022-12-25T04:43:00.935Z,98597.53
2022-12-25T04:45:29.037Z,98599.28
2022-12-25T04:47:57.203Z,98614.66
2022-12-25T04:50:25.269Z,98612.69
2022-12-25T04:52:53.344Z,98599.63
2022-12-25T04:55:21.517Z,98608.81
2022-12-25T04:57:50.954Z,98615.66
2022-12-25T05:00:19.687Z,98620.47
2022-12-25T05:02:47.791Z,98629.56
2022-12-25T05:05:16.045Z,98615.84
2022-12-25T05:07:44.187Z,98618.69
2022-12-25T05:10:12.850Z,98614.22
2022-12-25T05:12:40.887Z,98614.75
2022-12-25T05:15:11.535Z,98613.75
2022-12-25T05:17:39.642Z,98607.50
2022-12-25T05:20:08.920Z,98612.06
2022-12-25T05:22:36.993Z,98615.06
2022-12-25T05:25:05.390Z,98605.22
2022-12-25T05:27:33.448Z,98613.91
2022-12-25T05:30:01.548Z,98616.81
2022-12-25T05:32:31.065Z,98621.72
2022-12-25T05:35:00.380Z,98622.75
2022-12-25T05:37:28.429Z,98624.09
2022-12-25T05:39:56.475Z,98632.44
2022-12-25T05:42:24.530Z,98628.97
2022-12-25T05:44:52.606Z,98632.72
2022-12-25T05:47:20.664Z,98633.13
2022-12-25T05:49:50.178Z,98642.44
2022-12-25T05:52:18.293Z,98643.34
2022-12-25T05:54:46.321Z,98664.56
2022-12-25T05:57:14.533Z,98657.75
2022-12-25T05:59:42.651Z,98668.16
2022-12-25T06:02:10.832Z,98666.84
2022-12-25T06:04:38.928Z,98670.78
2022-12-25T06:07:08.540Z,98678.84
2022-12-25T06:09:36.681Z,98670.34
2022-12-25T06:12:05.333Z,98675.31
2022-12-25T06:14:33.570Z,98666.09
2022-12-25T06:17:01.828Z,98671.31
2022-12-25T06:19:29.969Z,98674.28
2022-12-25T06:21:58.098Z,98686.47
2022-12-25T06:24:27.816Z,98690.38
2022-12-25T06:26:55.925Z,98700.63
2022-12-25T06:29:24.111Z,98686.63
2022-12-25T06:31:57.214Z,98694.09
2022-12-25T06:34:25.654Z,98699.88
2022-12-25T06:36:53.874Z,98705.59
2022-12-25T06:39:22.661Z,98709.00
2022-12-25T06:41:52.144Z,98705.03
2022-12-25T06:44:20.323Z,98701.97
2022-12-25T06:46:48.405Z,98710.06
2022-12-25T06:49:16.566Z,98716.72
2022-12-25T06:51:44.656Z,98712.50
2022-12-25T06:54:12.821Z,98713.25
2022-12-25T06:56:40.900Z,98722.69
2022-12-25T06:59:12.237Z,98743.41
2022-12-25T07:01:47.264Z,98733.28
2022-12-25T07:04:20.637Z,98748.56
2022-12-25T07:06:48.848Z,98750.72
2022-12-25T07:09:16.877Z,98741.06
2022-12-25T07:11:45.030Z,98765.00
2022-12-25T07:14:23.773Z,98774.09
2022-12-25T07:16:53.190Z,98779.25
2022-12-25T07:19:21.319Z,98765.06
2022-12-25T07:21:49.660Z,98772.94
2022-12-25T07:24:20.311Z,98767.69
2022-12-25T07:26:48.512Z,98786.75
2022-12-25T07:29:19.503Z,98797.09
2022-12-25T07:31:47.928Z,98802.25
2022-12-25T07:34:17.805Z,98795.53
2022-12-25T07:36:46.197Z,98804.28
2022-12-25T07:39:14.456Z,98816.44
2022-12-25T07:41:42.478Z,98819.88
2022-12-25T07:44:15.839Z,98833.88
2022-12-25T07:46:45.410Z,98823.75
2022-12-25T07:49:13.792Z,98836.88
2022-12-25T07:51:41.815Z,98836.09
2022-12-25T07:54:10.033Z,98843.06
2022-12-25T07:56:38.103Z,98846.63
2022-12-25T07:59:06.217Z,98837.22
2022-12-25T08:01:34.572Z,98843.84
2022-12-25T08:04:04.630Z,98838.50
2022-12-25T08:06:34.501Z,98847.44
2022-12-25T08:09:06.140Z,98838.75
2022-12-25T08:11:34.316Z,98843.41
2022-12-25T08:14:02.428Z,98844.41
2022-12-25T08:16:30.540Z,98842.06
2022-12-25T08:18:58.627Z,98845.56
2022-12-25T08:21:28.438Z,98833.59
2022-12-25T08:23:56.573Z,98841.41
2022-12-25T08:26:24.701Z,98845.56
2022-12-25T08:28:53.262Z,98840.44
2022-12-25T08:31:23.673Z,98852.94
2022-12-25T08:33:53.668Z,98840.50
2022-12-25T08:36:21.978Z,98839.19
2022-12-25T08:38:54.580Z,98851.50
2022-12-25T08:41:27.293Z,98841.09
2022-12-25T08:43:55.446Z,98839.81
2022-12-25T08:46:23.562Z,98845.25
2022-12-25T08:48:51.885Z,98830.66
2022-12-25T08:51:22.683Z,98830.47
2022-12-25T08:53:53.820Z,98831.72
2022-12-25T08:56:22.606Z,98823.41
2022-12-25T08:58:50.786Z,98835.03
2022-12-25T09:01:18.970Z,98818.16
2022-12-25T09:03:47.146Z,98803.84
2022-12-25T09:06:17.173Z,98802.47
2022-12-25T09:08:49.267Z,98810.19
2022-12-25T09:11:21.243Z,98820.84
2022-12-25T09:13:50.097Z,98842.78
2022-12-25T09:16:21.197Z,98848.91
2022-12-25T09:18:50.216Z,98852.75
2022-12-25T09:21:19.286Z,98859.97
2022-12-25T09:23:47.640Z,98868.31
2022-12-25T09:26:17.570Z,98852.16
2022-12-25T09:28:51.998Z,98860.25
2022-12-25T09:31:20.886Z,98860.84
2022-12-25T09:33:49.583Z,98861.69
2022-12-25T09:36:18.024Z,98864.41
2022-12-25T09:38:46.070Z,98859.03
2022-12-25T09:41:18.432Z,98860.22
2022-12-25T09:43:52.569Z,98851.94
2022-12-25T09:46:23.586Z,98855.66
2022-12-25T09:49:03.806Z,98858.94
2022-12-25T09:51:35.859Z,98863.28
2022-12-25T09:54:12.031Z,98861.78
2022-12-25T09:56:40.075Z,98858.66
2022-12-25T09:59:18.383Z,98860.22
2022-12-25T10:02:01.432Z,98862.09
2022-12-25T10:04:52.665Z,98867.94
2022-12-25T10:07:31.614Z,98878.03
2022-12-25T10:10:10.731Z,98879.28
2022-12-25T10:12:51.071Z,98883.84
2022-12-25T10:15:31.721Z,98883.97
2022-12-25T10:18:15.169Z,98886.31
2022-12-25T10:20:51.529Z,98884.28
2022-12-25T10:23:23.816Z,98884.38
2022-12-25T10:25:53.930Z,98886.44
2022-12-25T10:28:27.686Z,98887.28
2022-12-25T10:31:02.669Z,98877.22
2022-12-25T10:33:31.345Z,98883.22
2022-12-25T10:35:59.570Z,98867.03
2022-12-25T10:38:27.636Z,98865.56
2022-12-25T10:41:14.693Z,98853.56
2022-12-25T10:43:47.835Z,98855.19
2022-12-25T10:46:19.148Z,98845.34
2022-12-25T10:48:51.254Z,98843.69
2022-12-25T10:51:29.792Z,98843.94
2022-12-25T10:53:58.051Z,98844.69
2022-12-25T10:56:26.159Z,98839.41
2022-12-25T10:59:06.378Z,98832.88
2022-12-25T11:01:36.182Z,98841.09
2022-12-25T11:04:04.723Z,98834.56
2022-12-25T11:06:34.633Z,98824.72
2022-12-25T11:09:03.849Z,98816.56
2022-12-25T11:11:32.468Z,98813.50
2022-12-25T11:14:02.767Z,98816.91
2022-12-25T11:16:33.055Z,98806.94
2022-12-25T11:19:03.228Z,98816.97
2022-12-25T11:21:33.276Z,98800.63
2022-12-25T11:24:02.965Z,98797.09
2022-12-25T11:26:36.559Z,98794.09
2022-12-25T11:29:11.473Z,98794.88
2022-12-25T11:31:42.421Z,98797.50
2022-12-25T11:34:25.192Z,98793.72
2022-12-25T11:36:54.574Z,98795.69
2022-12-25T11:39:26.484Z,98795.13
2022-12-25T11:42:00.525Z,98795.78
2022-12-25T11:44:37.736Z,98795.25
2022-12-25T11:47:13.011Z,98792.66
2022-12-25T11:49:50.217Z,98788.94
2022-12-25T11:52:21.537Z,98796.41
2022-12-25T11:54:56.607Z,98800.25
2022-12-25T11:57:27.977Z,98801.72
2022-12-25T12:00:01.167Z,98798.00
2022-12-25T12:02:35.809Z,98819.88
2022-12-25T12:05:17.690Z,98808.25
2022-12-25T12:07:58.315Z,98805.31
2022-12-25T12:10:36.984Z,98796.91
2022-12-25T12:13:29.587Z,98806.06
2022-12-25T12:15:58.631Z,98803.34
2022-12-25T12:18:32.187Z,98801.56
2022-12-25T12:21:04.735Z,98796.78
2022-12-25T12:23:35.968Z,98795.03
2022-12-25T12:26:05.613Z,98797.53
2022-12-25T12:28:45.884Z,98788.41
2022-12-25T12:31:15.138Z,98784.25
2022-12-25T12:33:50.702Z,98791.34
2022-12-25T12:36:34.447Z,98786.06
2022-12-25T12:39:03.626Z,98791.13
2022-12-25T12:41:45.894Z,98789.91
2022-12-25T12:44:16.522Z,98799.47
2022-12-25T12:46:53.434Z,98799.44
2022-12-25T12:49:27.013Z,98796.84
2022-12-25T12:52:07.419Z,98791.88
2022-12-25T12:54:54.526Z,98788.53
2022-12-25T12:57:29.525Z,98793.78
2022-12-25T13:00:04.823Z,98793.31
2022-12-25T13:03:02.293Z,98796.09
2022-12-25T13:05:39.836Z,98789.78
2022-12-25T13:08:26.745Z,98795.47
2022-12-25T13:11:06.585Z,98783.16
2022-12-25T13:13:37.841Z,98786.28
2022-12-25T13:16:07.577Z,98788.44
2022-12-25T13:18:35.883Z,98787.50
2022-12-25T13:21:06.460Z,98792.53
2022-12-25T13:23:39.130Z,98795.88
2022-12-25T13:26:13.589Z,98793.09
2022-12-25T13:28:42.030Z,98788.13
2022-12-25T13:31:16.333Z,98788.69
2022-12-25T13:33:47.788Z,98793.59
2022-12-25T13:36:16.330Z,98793.72
2022-12-25T13:38:47.478Z,98792.31
2022-12-25T13:41:37.824Z,98786.13
2022-12-25T13:44:15.056Z,98789.09
2022-12-25T13:46:43.163Z,98788.63
2022-12-25T13:49:16.440Z,98797.97
2022-12-25T13:51:44.826Z,98792.91
2022-12-25T13:54:16.548Z,98784.09
2022-12-25T13:56:51.403Z,98789.22
2022-12-25T13:59:21.338Z,98787.22
2022-12-25T14:01:50.758Z,98778.56
2022-12-25T14:04:22.277Z,98778.22
2022-12-25T14:06:52.003Z,98778.44
2022-12-25T14:09:21.774Z,98783.84
2022-12-25T14:11:52.510Z,98780.00
2022-12-25T14:14:23.233Z,98782.91
2022-12-25T14:16:56.519Z,98789.81
2022-12-25T14:19:28.032Z,98789.13
2022-12-25T14:22:00.459Z,98783.63
2022-12-25T14:24:32.335Z,98776.72
2022-12-25T14:27:02.903Z,98769.03
2022-12-25T14:29:37.809Z,98766.97
2022-12-25T14:32:08.885Z,98773.38
2022-12-25T14:34:37.168Z,98773.59
2022-12-25T14:37:05.923Z,98788.66
2022-12-25T14:39:37.369Z,98790.09
2022-12-25T14:42:14.984Z,98791.63
2022-12-25T14:44:43.097Z,98804.03
2022-12-25T14:47:22.349Z,98800.69
2022-12-25T14:49:51.095Z,98791.72
2022-12-25T14:52:22.773Z,98781.41
2022-12-25T14:54:56.825Z,98777.31
2022-12-25T14:57:30.108Z,98783.13
2022-12-25T15:00:06.435Z,98782.84
2022-12-25T15:02:41.670Z,98785.22
2022-12-25T15:05:28.815Z,98772.53
2022-12-25T15:08:21.953Z,98766.91
2022-12-25T15:11:01.798Z,98766.63
2022-12-25T15:13:31.935Z,98767.28
2022-12-25T15:16:04.249Z,98778.88
2022-12-25T15:18:37.821Z,98779.63
2022-12-25T15:21:06.291Z,98784.19
2022-12-25T15:23:34.426Z,98795.31
2022-12-25T15:26:03.951Z,98799.38
2022-12-25T15:28:32.111Z,98801.09
2022-12-25T15:31:00.242Z,98800.75
2022-12-25T15:33:29.564Z,98804.25
2022-12-25T15:35:57.601Z,98798.63
2022-12-25T15:38:25.810Z,98799.72
2022-12-25T15:40:53.884Z,98808.28
2022-12-25T15:43:40.370Z,98800.03
2022-12-25T15:46:10.607Z,98810.69
2022-12-25T15:48:38.753Z,98811.78
2022-12-25T15:51:07.008Z,98807.34
2022-12-25T15:53:35.086Z,98807.53
2022-12-25T15:56:03.314Z,98808.19
2022-12-25T15:58:32.840Z,98806.50
2022-12-25T16:01:01.068Z,98800.72
2022-12-25T16:03:29.198Z,98811.44
2022-12-25T16:05:57.385Z,98805.81
2022-12-25T16:08:25.496Z,98789.75
2022-12-25T16:10:53.939Z,98784.69
2022-12-25T16:13:23.289Z,98785.66
2022-12-25T16:15:52.818Z,98788.25
2022-12-25T16:18:21.391Z,98786.44
2022-12-25T16:20:49.472Z,98777.56
2022-12-25T16:23:17.657Z,98770.97
2022-12-25T16:25:45.964Z,98768.66
2022-12-25T16:28:14.223Z,98770.84
2022-12-25T16:30:43.236Z,98767.16
2022-12-25T16:33:13.023Z,98761.81
2022-12-25T16:35:41.125Z,98749.88
2022-12-25T16:38:09.193Z,98753.22
2022-12-25T16:40:37.330Z,98752.47
2022-12-25T16:43:05.352Z,98748.63
2022-12-25T16:45:38.243Z,98743.28
2022-12-25T16:48:06.685Z,98729.31
2022-12-25T16:50:38.710Z,98743.72
2022-12-25T16:53:06.939Z,98765.19
2022-12-25T16:55:36.894Z,98770.00
2022-12-25T16:58:05.151Z,98777.16
2022-12-25T17:00:33.372Z,98771.84
2022-12-25T17:03:01.802Z,98766.50
2022-12-25T17:05:30.066Z,98772.59
2022-12-25T17:08:00.396Z,98756.50
2022-12-25T17:10:28.511Z,98742.28
2022-12-25T17:12:56.713Z,98743.22
2022-12-25T17:15:24.927Z,98741.63
2022-12-25T17:17:52.961Z,98754.81
2022-12-25T17:20:21.049Z,98744.72
2022-12-25T17:22:50.096Z,98742.28
2022-12-25T17:25:19.587Z,98733.56
2022-12-25T17:27:50.371Z,98735.41
2022-12-25T17:30:18.617Z,98739.53
2022-12-25T17:32:47.192Z,98734.34
2022-12-25T17:35:16.005Z,98728.06
2022-12-25T17:37:44.039Z,98721.94
2022-12-25T17:40:12.959Z,98729.91
2022-12-25T17:42:42.484Z,98729.25
2022-12-25T17:45:11.357Z,98728.81
2022-12-25T17:47:39.386Z,98728.97
2022-12-25T17:50:08.797Z,98717.94
2022-12-25T17:52:36.880Z,98702.13
2022-12-25T17:55:05.753Z,98700.84
2022-12-25T17:57:33.859Z,98687.72
2022-12-25T18:00:03.482Z,98682.91
2022-12-25T18:02:32.976Z,98679.22
2022-12-25T18:05:01.182Z,98678.03
2022-12-25T18:07:29.277Z,98677.06
2022-12-25T18:09:57.450Z,98673.91
2022-12-25T18:12:25.529Z,98683.06
2022-12-25T18:14:53.738Z,98677.50
2022-12-25T18:17:23.216Z,98680.25
2022-12-25T18:19:51.813Z,98685.25
2022-12-25T18:22:19.865Z,98688.34
2022-12-25T18:24:47.999Z,98689.72
2022-12-25T18:27:16.108Z,98704.59
2022-12-25T18:29:44.163Z,98696.75
2022-12-25T18:32:12.312Z,98695.72
2022-12-25T18:34:41.760Z,98689.31
2022-12-25T18:37:09.822Z,98689.47
2022-12-25T18:39:37.902Z,98689.63
2022-12-25T18:42:23.525Z,98690.75
2022-12-25T18:44:54.509Z,98699.06
2022-12-25T18:47:22.752Z,98705.06
2022-12-25T18:49:53.026Z,98709.94
2022-12-25T18:52:50.130Z,98703.66
2022-12-25T18:55:10.779Z,98695.25
2022-12-25T18:57:40.867Z,98689.59
2022-12-25T19:00:10.144Z,98692.69
2022-12-25T19:02:38.327Z,98695.53
2022-12-25T19:05:08.422Z,98693.25
2022-12-25T19:07:37.181Z,98686.53
2022-12-25T19:10:05.723Z,98696.25
2022-12-25T19:12:33.883Z,98692.03
2022-12-25T19:15:02.344Z,98684.69
2022-12-25T19:17:32.101Z,98682.97
2022-12-25T19:20:00.573Z,98669.41
2022-12-25T19:22:30.592Z,98673.94
2022-12-25T19:24:58.652Z,98670.28
2022-12-25T19:27:26.755Z,98668.03
2022-12-25T19:29:54.805Z,98664.94
2022-12-25T19:32:23.000Z,98664.66
2022-12-25T19:34:51.124Z,98668.44
2022-12-25T19:37:19.318Z,98676.16
2022-12-25T19:39:48.901Z,98678.41
2022-12-25T19:42:18.961Z,98680.09
2022-12-25T19:44:47.061Z,98674.59
2022-12-25T19:47:15.131Z,98682.72
2022-12-25T19:49:44.226Z,98672.25
2022-12-25T19:52:14.090Z,98668.78
2022-12-25T19:54:42.210Z,98661.69
2022-12-25T19:57:11.636Z,98660.50
2022-12-25T19:59:39.943Z,98665.88
2022-12-25T20:02:10.608Z,98663.25
2022-12-25T20:04:38.790Z,98666.00
2022-12-25T20:07:06.852Z,98654.44
2022-12-25T20:09:34.919Z,98652.66
2022-12-25T20:12:03.076Z,98632.97
2022-12-25T20:14:32.577Z,98636.28
2022-12-25T20:17:00.784Z,98623.91
2022-12-25T20:19:29.027Z,98618.59
2022-12-25T20:21:58.628Z,98618.28
2022-12-25T20:24:26.698Z,98615.44
2022-12-25T20:26:58.990Z,98619.66
2022-12-25T20:29:27.713Z,98620.66
2022-12-25T20:31:57.179Z,98621.69
2022-12-25T20:34:25.318Z,98620.38
2022-12-25T20:36:53.546Z,98619.38
2022-12-25T20:39:21.775Z,98612.78
2022-12-25T20:41:49.859Z,98608.16
2022-12-25T20:44:18.156Z,98608.63
2022-12-25T20:46:46.234Z,98604.88
2022-12-25T20:49:15.767Z,98603.13
2022-12-25T20:51:43.871Z,98598.00
2022-12-25T20:54:12.795Z,98606.69
2022-12-25T20:56:40.826Z,98595.56
2022-12-25T20:59:11.629Z,98605.81
2022-12-25T21:01:39.874Z,98597.31
2022-12-25T21:04:11.629Z,98587.66
2022-12-25T21:06:45.405Z,98593.06
2022-12-25T21:09:13.544Z,98591.63
2022-12-25T21:11:41.603Z,98585.56
2022-12-25T21:14:09.885Z,98573.88
2022-12-25T21:16:38.008Z,98567.78
2022-12-25T21:19:06.135Z,98571.28
2022-12-25T21:21:36.027Z,98562.84
2022-12-25T21:24:05.855Z,98563.09
2022-12-25T21:26:33.965Z,98565.66
2022-12-25T21:29:03.460Z,98553.97
2022-12-25T21:31:51.977Z,98557.94
2022-12-25T21:34:19.126Z,98547.63
2022-12-25T21:36:47.229Z,98536.50
2022-12-25T21:39:16.743Z,98542.25
2022-12-25T21:41:44.899Z,98545.44
2022-12-25T21:44:13.093Z,98561.72
2022-12-25T21:46:41.242Z,98568.34
2022-12-25T21:49:10.634Z,98548.16
2022-12-25T21:51:56.304Z,98543.03
2022-12-25T21:54:25.827Z,98517.06
2022-12-25T21:56:53.861Z,98516.31
2022-12-25T21:59:23.140Z,98510.69
2022-12-25T22:01:52.860Z,98514.50
2022-12-25T22:04:22.596Z,98510.59
2022-12-25T22:07:08.118Z,98515.59
2022-12-25T22:09:37.905Z,98520.44
2022-12-25T22:12:26.214Z,98532.47
2022-12-25T22:15:02.998Z,98538.72
2022-12-25T22:17:51.390Z,98532.13
2022-12-25T22:20:21.497Z,98540.09
2022-12-25T22:22:50.372Z,98534.41
2022-12-25T22:25:20.670Z,98530.13
2022-12-25T22:27:49.367Z,98523.00
2022-12-25T22:30:19.809Z,98508.25
2022-12-25T22:32:48.412Z,98501.44
2022-12-25T22:35:17.658Z,98513.03
2022-12-25T22:37:45.890Z,98505.81
2022-12-25T22:40:15.917Z,98512.72
2022-12-25T22:42:45.399Z,98493.97
2022-12-25T22:45:13.873Z,98488.78
2022-12-25T22:47:42.532Z,98479.75
2022-12-25T22:50:12.224Z,98469.16
2022-12-25T22:52:41.178Z,98477.25
2022-12-25T22:55:11.031Z,98471.38
2022-12-25T22:57:39.144Z,98463.63
2022-12-25T23:00:10.109Z,98464.38
2022-12-25T23:02:38.488Z,98462.56
2022-12-25T23:05:07.496Z,98470.97
2022-12-25T23:07:35.700Z,98465.69
2022-12-25T23:10:04.013Z,98449.03
2022-12-25T23:12:49.357Z,98447.53
2022-12-25T23:15:19.005Z,98453.47
2022-12-25T23:18:04.283Z,98453.47
2022-12-25T23:20:51.274Z,98451.97
2022-12-25T23:23:37.262Z,98448.03
2022-12-25T23:26:09.074Z,98446.50
2022-12-25T23:28:55.348Z,98441.63
2022-12-25T23:31:28.434Z,98447.53
2022-12-25T23:33:56.675Z,98445.75
2022-12-25T23:36:25.057Z,98443.06
2022-12-25T23:38:53.171Z,98428.63
2022-12-25T23:41:22.837Z,98437.81
2022-12-25T23:43:50.922Z,98431.00
2022-12-25T23:46:19.066Z,98436.78
2022-12-25T23:48:49.039Z,98433.34
2022-12-25T23:51:18.276Z,98440.66
2022-12-25T23:53:46.314Z,98430.75
2022-12-25T23:56:14.918Z,98433.53
2022-12-25T23:58:45.292Z,98426.06
